createdAt,value
2022-08-17T00:01:55.878Z,133.80
2022-08-17T00:04:50.476Z,142.07
2022-08-17T00:07:38.715Z,144.52
2022-08-17T00:10:26.818Z,140.63
2022-08-17T00:13:17.547Z,138.10
2022-08-17T00:16:08.878Z,141.13
2022-08-17T00:19:07.062Z,149.98
2022-08-17T00:22:31.815Z,144.05
2022-08-17T00:25:13.205Z,141.90
2022-08-17T00:28:02.028Z,149.48
2022-08-17T00:30:52.868Z,167.45
2022-08-17T00:33:43.885Z,154.18
2022-08-17T00:36:31.971Z,151.07
2022-08-17T00:39:21.478Z,164.95
2022-08-17T00:42:14.697Z,153.23
2022-08-17T00:45:04.397Z,150.57
2022-08-17T00:47:52.467Z,159.20
2022-08-17T00:50:44.699Z,156.43
2022-08-17T00:53:34.662Z,167.18
2022-08-17T00:56:30.674Z,154.75
2022-08-17T00:59:21.948Z,166.20
2022-08-17T01:02:13.435Z,154.30
2022-08-17T01:05:01.772Z,163.10
2022-08-17T01:07:51.176Z,162.75
2022-08-17T01:10:59.917Z,152.27
2022-08-17T01:13:51.950Z,154.52
2022-08-17T01:16:40.393Z,164.85
2022-08-17T01:19:31.537Z,161.80
2022-08-17T01:22:22.675Z,164.75
2022-08-17T01:25:12.680Z,156.70
2022-08-17T01:28:01.580Z,154.57
2022-08-17T01:30:57.791Z,162.40
2022-08-17T01:33:47.454Z,165.40
2022-08-17T01:36:36.000Z,168.05
2022-08-17T01:39:30.821Z,171.85
2022-08-17T01:42:23.683Z,156.68
2022-08-17T01:45:14.639Z,161.00
2022-08-17T01:48:02.751Z,170.65
2022-08-17T01:50:52.728Z,184.38
2022-08-17T01:53:46.167Z,172.50
2022-08-17T01:56:37.686Z,166.68
2022-08-17T01:59:25.788Z,179.15
2022-08-17T02:02:30.996Z,169.13
2022-08-17T02:05:19.948Z,161.75
2022-08-17T02:08:08.244Z,150.88
2022-08-17T02:11:11.705Z,154.77
2022-08-17T02:14:03.383Z,154.40
2022-08-17T02:16:52.475Z,151.52
2022-08-17T02:19:40.430Z,146.68
2022-08-17T02:22:29.775Z,146.35
2022-08-17T02:25:20.909Z,133.88
2022-08-17T02:28:12.458Z,151.23
2022-08-17T02:31:07.743Z,142.30
2022-08-17T02:34:04.235Z,137.77
2022-08-17T02:36:54.060Z,139.05
2022-08-17T02:39:42.107Z,148.93
2022-08-17T02:42:33.765Z,146.35
2022-08-17T02:45:24.639Z,155.10
2022-08-17T02:48:13.966Z,155.95
2022-08-17T02:51:19.176Z,159.00
2022-08-17T02:54:41.727Z,176.80
2022-08-17T02:57:15.347Z,160.75
2022-08-17T03:00:03.718Z,189.35
2022-08-17T03:02:52.231Z,217.20
2022-08-17T03:05:41.771Z,230.32
2022-08-17T03:08:30.102Z,233.93
2022-08-17T03:11:18.100Z,241.07
2022-08-17T03:14:06.193Z,239.40
2022-08-17T03:16:54.607Z,267.60
2022-08-17T03:19:43.077Z,274.00
2022-08-17T03:22:38.316Z,293.38
2022-08-17T03:25:29.035Z,323.55
2022-08-17T03:28:17.228Z,314.50
2022-08-17T03:31:05.851Z,302.42
2022-08-17T03:33:53.867Z,343.92
2022-08-17T03:36:41.979Z,313.85
2022-08-17T03:39:31.469Z,330.65
2022-08-17T03:42:32.201Z,336.58
2022-08-17T03:45:43.201Z,351.38
2022-08-17T03:48:49.448Z,339.42
2022-08-17T03:51:55.045Z,361.77
2022-08-17T03:55:03.161Z,346.23
2022-08-17T03:57:51.235Z,359.42
2022-08-17T04:00:45.664Z,365.48
2022-08-17T04:03:33.901Z,369.60
2022-08-17T04:06:22.589Z,365.08
2022-08-17T04:09:11.799Z,391.02
2022-08-17T04:12:04.860Z,381.73
2022-08-17T04:14:54.902Z,348.63
2022-08-17T04:17:44.193Z,354.73
2022-08-17T04:20:32.314Z,363.63
2022-08-17T04:23:20.968Z,361.27
2022-08-17T04:26:09.095Z,373.63
2022-08-17T04:28:59.516Z,351.40
2022-08-17T04:31:47.959Z,366.20
2022-08-17T04:34:36.371Z,348.65
2022-08-17T04:37:24.373Z,341.75
2022-08-17T04:40:30.651Z,359.15
2022-08-17T04:43:21.088Z,358.70
2022-08-17T04:46:12.013Z,370.45
2022-08-17T04:49:01.372Z,360.33
2022-08-17T04:51:54.692Z,376.38
2022-08-17T04:54:44.897Z,356.58
2022-08-17T04:57:38.480Z,350.63
2022-08-17T05:00:28.769Z,353.52
2022-08-17T05:03:18.148Z,347.50
2022-08-17T05:06:06.610Z,345.73
2022-08-17T05:08:55.689Z,355.15
2022-08-17T05:11:45.049Z,352.58
2022-08-17T05:14:33.974Z,319.25
2022-08-17T05:17:22.094Z,324.40
2022-08-17T05:20:12.241Z,300.15
2022-08-17T05:23:04.491Z,299.27
2022-08-17T05:25:56.288Z,283.65
2022-08-17T05:28:44.372Z,281.42
2022-08-17T05:31:34.056Z,245.52
2022-08-17T05:34:22.748Z,252.23
2022-08-17T05:37:12.138Z,230.25
2022-08-17T05:40:00.409Z,214.32
2022-08-17T05:42:48.658Z,210.30
2022-08-17T05:45:55.907Z,203.25
2022-08-17T05:48:47.320Z,184.77
2022-08-17T05:52:09.118Z,172.38
2022-08-17T05:55:11.939Z,181.98
2022-08-17T05:58:14.596Z,170.30
2022-08-17T06:01:08.641Z,171.98
2022-08-17T06:04:05.363Z,175.73
2022-08-17T06:07:00.328Z,162.00
2022-08-17T06:09:54.517Z,169.23
2022-08-17T06:12:56.975Z,180.85
2022-08-17T06:15:53.654Z,170.38
2022-08-17T06:18:47.178Z,153.73
2022-08-17T06:21:39.000Z,150.85
2022-08-17T06:24:34.103Z,144.32
2022-08-17T06:27:30.191Z,153.50
2022-08-17T06:30:24.650Z,135.98
2022-08-17T06:33:21.796Z,139.05
2022-08-17T06:36:26.498Z,144.10
2022-08-17T06:39:26.536Z,142.20
2022-08-17T06:43:06.180Z,121.20
2022-08-17T06:45:40.011Z,96.68
2022-08-17T06:48:38.689Z,99.57
2022-08-17T06:51:31.696Z,89.70
2022-08-17T06:54:27.335Z,82.60
2022-08-17T06:57:20.018Z,79.25
2022-08-17T07:00:13.739Z,79.40
2022-08-17T07:03:11.097Z,75.32
2022-08-17T07:06:02.018Z,66.28
2022-08-17T07:08:54.911Z,66.38
2022-08-17T07:11:52.841Z,68.10
2022-08-17T07:14:51.452Z,67.97
2022-08-17T07:17:47.272Z,63.83
2022-08-17T07:20:43.313Z,73.13
2022-08-17T07:23:42.928Z,71.18
2022-08-17T07:26:30.969Z,69.30
2022-08-17T07:29:20.070Z,69.97
2022-08-17T07:32:09.487Z,70.75
2022-08-17T07:35:11.143Z,62.28
2022-08-17T07:38:24.183Z,73.68
2022-08-17T07:41:14.616Z,70.18
2022-08-17T07:44:02.871Z,75.28
2022-08-17T07:47:22.665Z,78.95
2022-08-17T07:50:27.411Z,77.53
2022-08-17T07:53:23.196Z,73.45
2022-08-17T07:56:11.289Z,77.78
2022-08-17T07:59:08.478Z,80.05
2022-08-17T08:02:26.449Z,81.00
2022-08-17T08:05:44.284Z,85.25
2022-08-17T08:08:37.811Z,83.28
2022-08-17T08:11:35.482Z,86.30
2022-08-17T08:14:29.285Z,80.53
2022-08-17T08:17:25.240Z,77.13
2022-08-17T08:20:37.761Z,78.57
2022-08-17T08:23:37.088Z,79.88
2022-08-17T08:26:32.672Z,66.10
2022-08-17T08:29:30.608Z,68.65
2022-08-17T08:32:29.160Z,61.42
2022-08-17T08:35:26.679Z,65.72
2022-08-17T08:38:28.191Z,65.60
2022-08-17T08:41:30.402Z,62.83
2022-08-17T08:44:59.981Z,65.55
2022-08-17T08:48:05.903Z,77.60
2022-08-17T08:51:09.676Z,79.60
2022-08-17T08:54:07.691Z,80.32
2022-08-17T09:00:15.816Z,89.95
2022-08-17T09:03:36.731Z,93.43
2022-08-17T09:06:46.218Z,92.47
2022-08-17T09:09:47.400Z,78.20
2022-08-17T09:12:44.509Z,74.47
2022-08-17T09:15:39.805Z,73.65
2022-08-17T09:19:00.011Z,73.38
2022-08-17T09:21:47.922Z,77.38
2022-08-17T09:24:41.328Z,79.65
2022-08-17T09:27:34.364Z,74.28
2022-08-17T09:30:24.937Z,69.63
2022-08-17T09:33:16.935Z,57.65
2022-08-17T09:36:10.988Z,51.38
2022-08-17T09:39:03.472Z,49.58
2022-08-17T09:41:57.119Z,47.60
2022-08-17T09:44:53.125Z,49.38
2022-08-17T09:47:50.625Z,48.80
2022-08-17T09:51:04.074Z,47.05
2022-08-17T09:53:54.210Z,44.03
2022-08-17T09:57:18.101Z,45.60
2022-08-17T10:00:17.869Z,41.97
2022-08-17T10:03:22.020Z,38.75
2022-08-17T10:06:21.757Z,39.28
2022-08-17T10:09:18.725Z,36.40
2022-08-17T10:12:20.384Z,33.03
2022-08-17T10:15:23.351Z,30.20
2022-08-17T10:18:31.786Z,28.15
2022-08-17T10:21:41.463Z,24.08
2022-08-17T10:25:21.539Z,23.42
2022-08-17T10:28:00.753Z,22.63
2022-08-17T10:31:05.465Z,23.55
2022-08-17T10:34:21.623Z,25.20
2022-08-17T10:37:28.245Z,24.90
2022-08-17T10:40:24.613Z,28.10
2022-08-17T10:43:29.211Z,32.28
2022-08-17T10:46:30.967Z,33.47
2022-08-17T10:49:29.347Z,35.80
2022-08-17T10:52:48.646Z,42.35
2022-08-17T10:55:36.693Z,49.72
2022-08-17T10:58:28.457Z,58.47
2022-08-17T11:01:17.581Z,65.47
2022-08-17T11:04:21.614Z,70.20
2022-08-17T11:07:22.885Z,64.40
2022-08-17T11:10:26.533Z,64.35
2022-08-17T11:13:28.850Z,72.10
2022-08-17T11:16:41.205Z,62.50
2022-08-17T11:19:46.975Z,61.10
2022-08-17T11:23:14.572Z,59.78
2022-08-17T11:26:18.375Z,45.90
2022-08-17T11:29:17.417Z,46.70
2022-08-17T11:32:13.312Z,44.67
2022-08-17T11:35:11.947Z,42.67
2022-08-17T11:38:19.446Z,41.75
2022-08-17T11:41:19.710Z,41.15
2022-08-17T11:44:32.834Z,37.58
2022-08-17T11:48:02.559Z,30.15
2022-08-17T11:51:24.426Z,25.63
2022-08-17T11:54:38.239Z,23.65
2022-08-17T11:58:06.443Z,23.70
2022-08-17T12:00:57.836Z,22.25
2022-08-17T12:03:54.329Z,21.27
2022-08-17T12:06:49.257Z,20.63
2022-08-17T12:09:44.876Z,21.85
2022-08-17T12:12:35.690Z,24.92
2022-08-17T12:15:30.904Z,31.33
2022-08-17T12:18:24.469Z,30.35
2022-08-17T12:21:38.780Z,32.72
2022-08-17T12:24:47.137Z,31.77
2022-08-17T12:27:56.834Z,26.58
2022-08-17T12:30:52.140Z,29.55
2022-08-17T12:33:44.581Z,32.42
2022-08-17T12:36:33.854Z,30.52
2022-08-17T12:39:25.183Z,31.90
2022-08-17T12:42:23.169Z,31.90
2022-08-17T12:45:24.403Z,28.85
2022-08-17T12:48:14.546Z,27.63
2022-08-17T12:51:07.750Z,28.00
2022-08-17T12:53:56.271Z,24.70
2022-08-17T12:56:47.669Z,23.98
2022-08-17T12:59:42.609Z,23.02
2022-08-17T13:02:45.024Z,20.27
2022-08-17T13:05:35.951Z,20.23
2022-08-17T13:08:28.661Z,18.83
2022-08-17T13:11:21.694Z,16.00
2022-08-17T13:14:11.187Z,15.40
2022-08-17T13:17:08.343Z,14.57
2022-08-17T13:19:59.766Z,14.70
2022-08-17T13:22:54.474Z,15.35
2022-08-17T13:25:42.464Z,15.15
2022-08-17T13:28:36.220Z,16.58
2022-08-17T13:31:49.222Z,17.17
2022-08-17T13:34:51.363Z,17.52
2022-08-17T13:38:01.218Z,18.08
2022-08-17T13:40:53.056Z,17.88
2022-08-17T13:43:45.970Z,17.95
2022-08-17T13:46:35.322Z,18.63
2022-08-17T13:49:23.922Z,18.75
2022-08-17T13:52:32.982Z,19.58
2022-08-17T13:55:23.667Z,19.17
2022-08-17T13:58:11.707Z,20.73
2022-08-17T14:01:20.019Z,20.60
2022-08-17T14:04:10.725Z,19.85
2022-08-17T14:07:01.952Z,19.13
2022-08-17T14:09:54.726Z,18.33
2022-08-17T14:12:44.718Z,19.17
2022-08-17T14:15:55.427Z,20.50
2022-08-17T14:18:56.549Z,20.15
2022-08-17T14:21:47.465Z,20.20
2022-08-17T14:24:44.863Z,19.15
2022-08-17T14:27:51.935Z,19.27
2022-08-17T14:30:43.055Z,18.52
2022-08-17T14:33:31.164Z,18.65
2022-08-17T14:36:19.186Z,18.20
2022-08-17T14:39:07.296Z,19.60
2022-08-17T14:41:58.195Z,19.35
2022-08-17T14:44:47.565Z,17.48
2022-08-17T14:47:36.726Z,17.58
2022-08-17T14:50:24.759Z,16.75
2022-08-17T14:53:15.736Z,17.70
2022-08-17T14:56:04.146Z,18.73
2022-08-17T14:58:52.831Z,17.85
2022-08-17T15:01:42.250Z,16.65
2022-08-17T15:04:30.355Z,15.70
2022-08-17T15:07:19.048Z,17.02
2022-08-17T15:10:08.883Z,16.63
2022-08-17T15:12:58.263Z,15.82
2022-08-17T15:15:46.290Z,16.35
2022-08-17T15:18:36.066Z,16.75
2022-08-17T15:21:24.106Z,15.85
2022-08-17T15:24:12.069Z,16.20
2022-08-17T15:27:00.139Z,15.93
2022-08-17T15:29:48.120Z,16.65
2022-08-17T15:32:40.587Z,15.55
2022-08-17T15:35:32.574Z,16.08
2022-08-17T15:38:21.763Z,17.30
2022-08-17T15:41:14.924Z,17.02
2022-08-17T15:44:02.931Z,17.40
2022-08-17T15:46:51.227Z,16.10
2022-08-17T15:49:40.414Z,17.75
2022-08-17T15:52:30.697Z,16.92
2022-08-17T15:55:23.968Z,17.15
2022-08-17T15:58:12.664Z,17.25
2022-08-17T16:01:18.384Z,18.45
2022-08-17T16:04:26.810Z,19.77
2022-08-17T16:07:17.471Z,18.30
2022-08-17T16:10:07.764Z,19.20
2022-08-17T16:12:55.775Z,19.00
2022-08-17T16:15:43.864Z,17.88
2022-08-17T16:18:32.594Z,18.60
2022-08-17T16:21:27.038Z,18.42
2022-08-17T16:24:15.194Z,17.80
2022-08-17T16:27:12.590Z,18.23
2022-08-17T16:30:00.971Z,17.17
2022-08-17T16:32:51.620Z,18.27
2022-08-17T16:35:42.073Z,18.67
2022-08-17T16:38:30.152Z,19.13
2022-08-17T16:41:32.436Z,18.80
2022-08-17T16:44:22.793Z,19.30
2022-08-17T16:47:10.835Z,19.40
2022-08-17T16:49:59.057Z,18.98
2022-08-17T16:52:48.416Z,18.67
2022-08-17T16:55:36.653Z,18.20
2022-08-17T16:58:24.733Z,17.80
2022-08-17T17:01:15.760Z,18.92
2022-08-17T17:04:07.096Z,19.52
2022-08-17T17:07:03.859Z,18.55
2022-08-17T17:09:55.346Z,17.25
2022-08-17T17:13:01.985Z,17.27
2022-08-17T17:15:57.714Z,17.98
2022-08-17T17:18:59.870Z,18.42
2022-08-17T17:21:52.818Z,16.58
2022-08-17T17:24:50.292Z,17.92
2022-08-17T17:27:43.713Z,19.35
2022-08-17T17:30:43.601Z,20.45
2022-08-17T17:33:38.531Z,21.38
2022-08-17T17:36:35.557Z,23.95
2022-08-17T17:39:31.868Z,23.17
2022-08-17T17:42:23.220Z,24.10
2022-08-17T17:45:19.540Z,24.27
2022-08-17T17:48:07.710Z,24.17
2022-08-17T17:51:07.051Z,22.42
2022-08-17T17:54:01.961Z,24.15
2022-08-17T17:56:58.586Z,24.58
2022-08-17T17:59:55.421Z,26.15
2022-08-17T18:02:56.486Z,27.65
2022-08-17T18:05:58.179Z,29.73
2022-08-17T18:09:02.841Z,30.17
2022-08-17T18:12:08.969Z,31.75
2022-08-17T18:15:11.278Z,36.25
2022-08-17T18:18:22.546Z,37.22
2022-08-17T18:21:16.844Z,41.17
2022-08-17T18:24:08.829Z,46.65
2022-08-17T18:26:59.235Z,47.63
2022-08-17T18:29:48.646Z,51.97
2022-08-17T18:32:41.294Z,54.22
2022-08-17T18:35:35.115Z,54.20
2022-08-17T18:38:28.752Z,59.28
2022-08-17T18:41:26.071Z,58.63
2022-08-17T18:44:25.780Z,62.17
2022-08-17T18:47:16.471Z,66.53
2022-08-17T18:50:23.653Z,65.00
2022-08-17T18:53:26.545Z,69.47
2022-08-17T18:56:31.279Z,72.57
2022-08-17T18:59:27.928Z,73.75
2022-08-17T19:02:44.758Z,75.03
2022-08-17T19:05:37.814Z,74.30
2022-08-17T19:08:34.395Z,85.13
2022-08-17T19:11:28.233Z,85.57
2022-08-17T19:14:20.115Z,87.35
2022-08-17T19:17:12.479Z,94.13
2022-08-17T19:20:05.750Z,93.30
2022-08-17T19:23:04.782Z,87.85
2022-08-17T19:25:55.634Z,89.75
2022-08-17T19:28:50.424Z,94.80
2022-08-17T19:31:39.928Z,102.20
2022-08-17T19:34:33.984Z,98.70
2022-08-17T19:37:33.916Z,103.40
2022-08-17T19:40:52.492Z,105.85
2022-08-17T19:43:55.427Z,102.93
2022-08-17T19:47:00.893Z,110.97
2022-08-17T19:50:01.066Z,125.35
2022-08-17T19:52:57.883Z,130.20
2022-08-17T19:55:54.784Z,125.57
2022-08-17T19:58:53.441Z,131.23
2022-08-17T20:01:50.100Z,126.72
2022-08-17T20:04:43.613Z,124.07
2022-08-17T20:07:43.129Z,134.35
2022-08-17T20:10:39.610Z,134.90
2022-08-17T20:13:41.843Z,140.55
2022-08-17T20:16:30.316Z,148.88
2022-08-17T20:19:25.102Z,147.70
2022-08-17T20:22:21.919Z,149.77
2022-08-17T20:25:17.106Z,157.75
2022-08-17T20:28:24.705Z,146.35
2022-08-17T20:31:41.394Z,162.82
2022-08-17T20:34:38.080Z,163.48
2022-08-17T20:37:31.722Z,161.57
2022-08-17T20:40:29.922Z,165.13
2022-08-17T20:43:46.477Z,160.50
2022-08-17T20:46:56.357Z,167.70
2022-08-17T20:49:55.765Z,177.27
2022-08-17T20:52:51.690Z,187.00
2022-08-17T20:55:54.691Z,190.55
2022-08-17T20:58:47.682Z,201.20
2022-08-17T21:01:39.507Z,217.38
2022-08-17T21:05:00.091Z,222.30
2022-08-17T21:07:57.885Z,204.07
2022-08-17T21:10:47.853Z,206.20
2022-08-17T21:14:01.793Z,212.52
2022-08-17T21:17:06.714Z,211.50
2022-08-17T21:20:17.152Z,211.30
2022-08-17T21:23:20.672Z,219.32
2022-08-17T21:26:23.636Z,217.88
2022-08-17T21:29:31.358Z,227.93
2022-08-17T21:32:29.158Z,222.93
2022-08-17T21:35:28.351Z,229.48
2022-08-17T21:38:20.720Z,235.30
2022-08-17T21:41:20.023Z,239.85
2022-08-17T21:44:22.019Z,250.88
2022-08-17T21:47:19.290Z,240.27
2022-08-17T21:50:18.593Z,247.25
2022-08-17T21:53:08.716Z,233.98
2022-08-17T21:55:58.108Z,242.02
2022-08-17T21:58:48.563Z,246.55
2022-08-17T22:01:39.900Z,238.60
2022-08-17T22:04:31.122Z,237.27
2022-08-17T22:07:35.951Z,223.05
2022-08-17T22:10:34.522Z,232.02
2022-08-17T22:13:29.726Z,249.98
2022-08-17T22:16:29.382Z,234.80
2022-08-17T22:19:18.720Z,226.00
2022-08-17T22:22:09.659Z,220.60
2022-08-17T22:24:59.883Z,213.48
2022-08-17T22:27:52.049Z,218.00
2022-08-17T22:30:43.175Z,212.27
2022-08-17T22:33:39.586Z,202.20
2022-08-17T22:36:29.655Z,217.55
2022-08-17T22:39:41.606Z,219.88
2022-08-17T22:42:29.687Z,231.13
2022-08-17T22:45:18.008Z,242.77
2022-08-17T22:48:07.472Z,218.10
2022-08-17T22:51:12.650Z,221.50
2022-08-17T22:54:21.739Z,212.23
2022-08-17T22:57:32.229Z,214.82
2022-08-17T23:00:38.344Z,208.63
2022-08-17T23:03:28.167Z,202.10
2022-08-17T23:06:16.271Z,229.75
2022-08-17T23:09:06.863Z,226.70
2022-08-17T23:11:58.491Z,226.32
2022-08-17T23:14:49.304Z,221.55
2022-08-17T23:17:38.809Z,228.25
2022-08-17T23:20:28.178Z,233.88
2022-08-17T23:23:18.743Z,231.23
2022-08-17T23:26:11.287Z,223.85
2022-08-17T23:28:59.964Z,224.98
2022-08-17T23:31:49.154Z,244.25
2022-08-17T23:34:38.313Z,238.13
2022-08-17T23:37:28.360Z,234.27
2022-08-17T23:40:16.635Z,224.73
2022-08-17T23:43:11.425Z,222.00
2022-08-17T23:46:13.042Z,207.68
2022-08-17T23:49:01.176Z,212.13
2022-08-17T23:51:50.257Z,204.13
2022-08-17T23:54:43.574Z,200.05
2022-08-17T23:57:33.693Z,203.18
